Time;durP1;ratioP1;P1;durP2;ratioP2;P2;SDS_P1;SDS_P2;PMS_P1;PMS_P2;Temp;Humidity;BMP_temperature;BMP_pressure;BME280_temperature;BME280_humidity;BME280_pressure;Samples;Min_cycle;Max_cycle;Signal;HPM_P1;HPM_P2
2021/07/30 00:01:37;;;;;;;;;;;;;;;-144.99;68.40;52299.31;5014968;28;19974;-60
2021/07/30 00:04:03;;;;;;;;;;;;;;;-144.99;68.58;52313.56;5002529;28;19969;-60
2021/07/30 00:06:30;;;;;;;;;;;;;;;-144.99;68.77;52325.81;5008334;28;19962;-59
2021/07/30 00:08:56;;;;;;;;;;;;;;;-144.99;69.04;52346.19;5009462;28;19968;-60
2021/07/30 00:11:22;;;;;;;;;;;;;;;-144.99;69.24;52297.25;4996367;28;20145;-59
2021/07/30 00:13:49;;;;;;;;;;;;;;;-144.99;69.23;52338.03;5009146;28;19955;-60
2021/07/30 00:16:15;;;;;;;;;;;;;;;-144.99;69.09;52317.66;5008761;28;19982;-60
2021/07/30 00:18:43;;;;;;;;;;;;;;;-144.99;69.35;52321.72;5013877;28;19963;-61
2021/07/30 00:21:09;;;;;;;;;;;;;;;-144.99;69.59;52354.34;5008872;28;19974;-61
2021/07/30 00:23:35;;;;;;;;;;;;;;;-144.99;69.37;52358.41;5013935;28;20233;-61
2021/07/30 00:26:02;;;;;;;;;;;;;;;-144.99;69.57;52280.97;5008929;28;19933;-61
2021/07/30 00:28:29;;;;;;;;;;;;;;;-144.99;69.64;52317.66;5008568;28;20434;-61
2021/07/30 00:30:55;;;;;;;;;;;;;;;-144.99;69.89;52305.41;5008429;28;20478;-61
2021/07/30 00:33:21;;;;;;;;;;;;;;;-144.99;69.75;52338.03;5009404;28;20422;-61
2021/07/30 00:35:49;;;;;;;;;;;;;;;-144.99;69.80;52301.34;5020288;28;19973;-61
2021/07/30 00:38:15;;;;;;;;;;;;;;;-144.99;69.57;52321.72;5021373;28;19994;-61
2021/07/30 00:40:42;;;;;;;;;;;;;;;-144.99;70.14;52342.09;5014952;28;19972;-61
2021/07/30 00:43:08;;;;;;;;;;;;;;;-144.99;70.24;52338.03;5009081;28;19980;-62
2021/07/30 00:45:34;;;;;;;;;;;;;;;-144.99;70.30;52319.69;5008818;28;19991;-61
2021/07/30 00:48:01;;;;;;;;;;;;;;;-144.99;70.45;52382.88;5008908;28;19987;-61
2021/07/30 00:50:27;;;;;;;;;;;;;;;-144.99;70.69;52321.72;5008917;28;19980;-60
2021/07/30 00:52:55;;;;;;;;;;;;;;;-144.99;70.46;52338.03;5009279;28;19961;-60
2021/07/30 00:55:23;;;;;;;;;;;;;;;-144.99;71.05;52293.19;5009721;28;20413;-60
2021/07/30 00:57:49;;;;;;;;;;;;;;;-144.99;70.99;52338.03;5008027;28;19975;-60
2021/07/30 01:00:16;;;;;;;;;;;;;;;-144.99;71.17;52344.16;5018278;28;19988;-59
2021/07/30 01:02:42;;;;;;;;;;;;;;;-144.99;71.10;52325.81;5017693;28;19973;-58
2021/07/30 01:05:09;;;;;;;;;;;;;;;-144.99;71.37;52321.72;5004847;28;19968;-58
2021/07/30 01:07:36;;;;;;;;;;;;;;;-144.99;71.36;52313.56;5012092;28;20321;-57
2021/07/30 01:10:05;;;;;;;;;;;;;;;-144.99;71.36;52323.75;5012354;28;19999;-57
2021/07/30 01:12:31;;;;;;;;;;;;;;;-144.99;71.56;52333.94;5010032;28;19992;-57
2021/07/30 01:14:57;;;;;;;;;;;;;;;-144.99;71.40;52297.25;5024113;28;19972;-57
2021/07/30 01:17:25;;;;;;;;;;;;;;;-144.99;71.69;52358.41;5023065;28;20064;-57
2021/07/30 01:19:52;;;;;;;;;;;;;;;-144.99;72.01;52340.06;5002283;28;20011;-58
2021/07/30 01:22:21;;;;;;;;;;;;;;;-144.99;72.03;52309.50;4997052;28;19959;-58
2021/07/30 01:24:49;;;;;;;;;;;;;;;-144.99;71.76;52323.75;5026748;28;20002;-57
2021/07/30 01:27:16;;;;;;;;;;;;;;;-144.99;71.69;52333.94;5024652;28;20004;-57
2021/07/30 01:29:42;;;;;;;;;;;;;;;-144.99;71.90;52325.81;5013227;28;19975;-57
2021/07/30 01:32:08;;;;;;;;;;;;;;;-144.99;71.99;52329.88;5012170;28;19984;-58
2021/07/30 01:34:35;;;;;;;;;;;;;;;-144.99;72.35;52325.81;5011858;28;20061;-57
2021/07/30 01:37:01;;;;;;;;;;;;;;;-144.99;72.35;52329.88;5021546;28;19956;-57
2021/07/30 01:39:28;;;;;;;;;;;;;;;-144.99;72.41;52313.56;5013594;28;20086;-57
2021/07/30 01:41:55;;;;;;;;;;;;;;;-144.99;72.53;52362.50;5012228;28;19959;-57
2021/07/30 01:44:22;;;;;;;;;;;;;;;-144.99;72.51;52321.72;5011403;28;19977;-57
2021/07/30 01:46:48;;;;;;;;;;;;;;;-144.99;72.42;52350.25;5011360;28;20384;-57
2021/07/30 01:49:14;;;;;;;;;;;;;;;-144.99;72.69;52315.59;5011632;28;19973;-57
2021/07/30 01:51:41;;;;;;;;;;;;;;;-144.99;72.56;52313.56;5011728;28;20007;-57
2021/07/30 01:54:07;;;;;;;;;;;;;;;-144.99;72.44;52295.22;5001849;28;20415;-56
2021/07/30 01:56:34;;;;;;;;;;;;;;;-144.99;72.49;52362.50;5017583;28;19976;-56
2021/07/30 01:59:01;;;;;;;;;;;;;;;-144.99;72.32;52333.94;5010363;28;19979;-57
2021/07/30 02:01:28;;;;;;;;;;;;;;;-144.99;72.44;52325.81;5002964;28;19980;-56
2021/07/30 02:03:54;;;;;;;;;;;;;;;-144.99;72.29;52340.06;5011323;28;19991;-58
2021/07/30 02:06:20;;;;;;;;;;;;;;;-144.99;72.34;52325.81;5011355;28;20217;-58
2021/07/30 02:08:46;;;;;;;;;;;;;;;-144.99;72.19;52342.09;5011363;28;19972;-60
2021/07/30 02:11:13;;;;;;;;;;;;;;;-144.99;72.42;52321.72;5019185;28;19992;-60
2021/07/30 02:16:25;;;;;;;;;;;;;;;-144.99;72.40;52319.69;5041361;22;20074;-61
2021/07/30 02:18:52;;;;;;;;;;;;;;;-144.99;72.31;52313.56;5035795;28;19992;-60
2021/07/30 02:21:19;;;;;;;;;;;;;;;-144.99;72.44;52321.72;5038777;28;20042;-62
2021/07/30 02:23:46;;;;;;;;;;;;;;;-144.99;72.35;52321.72;5030819;28;20001;-62
2021/07/30 02:26:13;;;;;;;;;;;;;;;-144.99;72.20;52338.03;5031247;28;19972;-62
2021/07/30 02:28:39;;;;;;;;;;;;;;;-144.99;72.56;52327.84;5030162;28;20405;-60
2021/07/30 02:31:05;;;;;;;;;;;;;;;-144.99;72.74;52346.19;5030795;28;19997;-61
2021/07/30 02:33:33;;;;;;;;;;;;;;;-144.99;73.01;52331.91;5030873;28;19986;-60
2021/07/30 02:35:59;;;;;;;;;;;;;;;-144.99;72.66;52309.50;5030703;28;19976;-63
2021/07/30 02:38:26;;;;;;;;;;;;;;;-144.99;72.76;52317.66;5030363;28;19991;-60
2021/07/30 02:40:52;;;;;;;;;;;;;;;-144.99;72.77;52346.19;5030109;28;20457;-62
2021/07/30 02:43:18;;;;;;;;;;;;;;;-144.99;72.59;52321.72;5030082;28;20234;-61
2021/07/30 02:45:45;;;;;;;;;;;;;;;-144.99;72.90;52323.75;5030193;28;20348;-62
2021/07/30 02:48:11;;;;;;;;;;;;;;;-144.99;72.70;52342.09;5030455;28;19978;-65
2021/07/30 02:50:39;;;;;;;;;;;;;;;-144.99;72.87;52321.72;5029532;28;20003;-65
2021/07/30 02:53:05;;;;;;;;;;;;;;;-144.99;72.98;52325.81;5030620;28;19982;-65
2021/07/30 02:55:31;;;;;;;;;;;;;;;-144.99;73.13;52354.34;5038872;28;20358;-65
2021/07/30 02:57:57;;;;;;;;;;;;;;;-144.99;73.31;52317.66;5033090;28;20098;-65
2021/07/30 03:00:24;;;;;;;;;;;;;;;-144.99;73.57;52338.03;5031364;28;19944;-65
2021/07/30 03:02:50;;;;;;;;;;;;;;;-144.99;73.36;52350.25;5042250;28;19975;-64
2021/07/30 03:05:16;;;;;;;;;;;;;;;-144.99;73.45;52358.41;5029838;28;19977;-63
2021/07/30 03:07:44;;;;;;;;;;;;;;;-144.99;73.58;52325.81;5030269;28;20071;-62
2021/07/30 03:10:11;;;;;;;;;;;;;;;-144.99;73.72;52333.94;5030232;28;20000;-64
2021/07/30 03:12:37;;;;;;;;;;;;;;;-144.99;73.45;52329.88;5030351;28;19987;-62
2021/07/30 03:15:03;;;;;;;;;;;;;;;-144.99;73.51;52309.50;5037026;28;19979;-62
2021/07/30 03:17:30;;;;;;;;;;;;;;;-144.99;73.63;52325.81;5032946;28;19990;-60
2021/07/30 03:19:56;;;;;;;;;;;;;;;-144.99;73.79;52309.50;5029689;28;19981;-60
2021/07/30 03:22:22;;;;;;;;;;;;;;;-144.99;73.88;52346.19;5029445;28;19993;-61
2021/07/30 03:24:50;;;;;;;;;;;;;;;-144.99;74.07;52313.56;5029748;28;20364;-60
2021/07/30 03:27:16;;;;;;;;;;;;;;;-144.99;74.04;52317.66;5030555;28;19981;-60
2021/07/30 03:29:43;;;;;;;;;;;;;;;-144.99;74.13;52336.00;5030332;28;19979;-60
2021/07/30 03:32:09;;;;;;;;;;;;;;;-144.99;74.27;52333.94;5029629;28;19980;-60
2021/07/30 03:34:35;;;;;;;;;;;;;;;-144.99;74.28;52364.53;5030076;28;19982;-59
2021/07/30 03:37:02;;;;;;;;;;;;;;;-144.99;74.25;52313.56;5029606;28;19978;-58
2021/07/30 03:39:28;;;;;;;;;;;;;;;-144.99;74.23;52323.75;5030178;28;19982;-59
2021/07/30 03:41:56;;;;;;;;;;;;;;;-144.99;74.04;52325.81;5029785;28;19994;-59
2021/07/30 03:44:22;;;;;;;;;;;;;;;-144.99;74.07;52321.72;5029287;28;19998;-59
2021/07/30 03:46:49;;;;;;;;;;;;;;;-144.99;74.30;52354.34;5029539;28;20435;-59
2021/07/30 03:49:15;;;;;;;;;;;;;;;-144.99;74.51;52311.53;5034988;28;19958;-58
2021/07/30 03:51:41;;;;;;;;;;;;;;;-144.99;74.67;52323.75;5036362;28;20015;-58
2021/07/30 03:54:09;;;;;;;;;;;;;;;-144.99;74.68;52354.34;5029960;28;20233;-58
2021/07/30 03:56:37;;;;;;;;;;;;;;;-144.99;74.86;52321.72;5041815;28;20029;-61
2021/07/30 03:59:05;;;;;;;;;;;;;;;-144.99;75.01;52364.53;5028979;28;20001;-61
2021/07/30 04:01:31;;;;;;;;;;;;;;;-144.99;75.22;52354.34;5029386;28;19999;-60
2021/07/30 04:03:58;;;;;;;;;;;;;;;-144.99;75.35;52321.72;5029640;28;20084;-59
2021/07/30 04:06:24;;;;;;;;;;;;;;;-144.99;75.35;52301.34;5029384;28;20000;-59
2021/07/30 04:08:50;;;;;;;;;;;;;;;-144.99;75.43;52321.72;5029602;28;20161;-60
2021/07/30 04:11:17;;;;;;;;;;;;;;;-144.99;75.66;52331.91;5029159;28;19932;-60
2021/07/30 04:13:45;;;;;;;;;;;;;;;-144.99;75.45;52346.19;5029433;28;20350;-60
2021/07/30 04:16:13;;;;;;;;;;;;;;;-144.99;75.65;52333.94;5036666;28;20438;-60
2021/07/30 04:18:40;;;;;;;;;;;;;;;-144.99;75.72;52305.41;5032835;28;20001;-60
2021/07/30 04:21:07;;;;;;;;;;;;;;;-144.99;75.69;52342.09;5028289;28;20400;-59
2021/07/30 04:23:33;;;;;;;;;;;;;;;-144.99;75.80;52344.16;5029194;28;20446;-59
2021/07/30 04:25:59;;;;;;;;;;;;;;;-144.99;75.70;52346.19;5029114;28;20086;-59
2021/07/30 04:28:26;;;;;;;;;;;;;;;-144.99;75.54;52319.69;5029145;28;19978;-60
2021/07/30 04:30:52;;;;;;;;;;;;;;;-144.99;75.97;52325.81;5028238;28;20345;-59
2021/07/30 04:33:20;;;;;;;;;;;;;;;-144.99;75.72;52321.72;5029159;28;19971;-60
2021/07/30 04:35:46;;;;;;;;;;;;;;;-144.99;75.86;52325.81;5029704;28;19968;-63
2021/07/30 04:38:12;;;;;;;;;;;;;;;-144.99;75.78;52321.72;5035620;28;19991;-63
2021/07/30 04:40:40;;;;;;;;;;;;;;;-144.99;75.70;52336.00;5040600;28;19994;-62
2021/07/30 04:43:06;;;;;;;;;;;;;;;-144.99;75.65;52325.81;5033791;28;20025;-63
2021/07/30 04:45:33;;;;;;;;;;;;;;;-144.99;75.59;52309.50;5032730;28;19983;-62
2021/07/30 04:48:00;;;;;;;;;;;;;;;-144.99;75.74;52342.09;5032987;28;20018;-59
2021/07/30 04:50:28;;;;;;;;;;;;;;;-144.99;75.42;52366.56;5032279;28;19998;-59
2021/07/30 04:52:55;;;;;;;;;;;;;;;-144.99;75.33;52313.56;5032463;28;20002;-59
2021/07/30 04:55:21;;;;;;;;;;;;;;;-144.99;75.42;52293.19;5040246;28;20330;-59
2021/07/30 04:57:47;;;;;;;;;;;;;;;-144.99;75.21;52325.81;5037000;28;19994;-59
2021/07/30 05:00:14;;;;;;;;;;;;;;;-144.99;75.09;52301.34;5040932;28;19978;-59
2021/07/30 05:02:41;;;;;;;;;;;;;;;-144.99;75.01;52321.72;5045606;28;19981;-58
2021/07/30 05:05:08;;;;;;;;;;;;;;;-144.99;74.77;52325.81;5032538;28;19963;-59
2021/07/30 05:07:35;;;;;;;;;;;;;;;-144.99;74.94;52338.03;5032483;28;20372;-59
2021/07/30 05:10:01;;;;;;;;;;;;;;;-144.99;74.78;52309.50;5032334;28;20379;-59
2021/07/30 05:12:30;;;;;;;;;;;;;;;-144.99;74.65;52329.88;5032772;28;19978;-59
2021/07/30 05:14:56;;;;;;;;;;;;;;;-144.99;74.87;52336.00;5038694;28;19960;-59
2021/07/30 05:17:22;;;;;;;;;;;;;;;-144.99;74.42;52297.25;5036262;28;19966;-60
2021/07/30 05:19:49;;;;;;;;;;;;;;;-144.99;74.62;52309.50;5032222;28;20318;-60
2021/07/30 05:22:15;;;;;;;;;;;;;;;-144.99;74.16;52301.34;5031586;28;20367;-60
2021/07/30 05:24:42;;;;;;;;;;;;;;;-144.99;74.34;52297.25;5032647;28;19944;-60
2021/07/30 05:27:09;;;;;;;;;;;;;;;-144.99;74.30;52319.69;5032288;28;19967;-61
2021/07/30 05:29:35;;;;;;;;;;;;;;;-144.99;73.93;52283.00;5032223;28;19961;-61
2021/07/30 05:32:01;;;;;;;;;;;;;;;-144.99;73.51;52289.13;5032116;28;20368;-60
2021/07/30 05:34:28;;;;;;;;;;;;;;;-144.99;73.47;52285.03;5032576;28;20329;-62
2021/07/30 05:36:54;;;;;;;;;;;;;;;-144.99;73.50;52303.38;5034339;28;19967;-62
2021/07/30 05:39:20;;;;;;;;;;;;;;;-144.99;73.33;52342.09;5042351;28;19972;-62
2021/07/30 05:41:48;;;;;;;;;;;;;;;-144.99;73.26;52329.88;5032353;28;19992;-62
2021/07/30 05:44:14;;;;;;;;;;;;;;;-144.99;73.11;52297.25;5032842;28;20183;-60
2021/07/30 05:46:41;;;;;;;;;;;;;;;-144.99;72.73;52305.41;5031493;28;19977;-59
2021/07/30 05:49:07;;;;;;;;;;;;;;;-144.99;72.93;52317.66;5032230;28;19992;-60
2021/07/30 05:51:34;;;;;;;;;;;;;;;-144.99;73.03;52309.50;5031493;28;19992;-57
2021/07/30 05:54:00;;;;;;;;;;;;;;;-144.99;72.57;52258.53;5031766;28;20089;-57
2021/07/30 05:56:27;;;;;;;;;;;;;;;-144.99;72.54;52311.53;5042787;28;19982;-58
2021/07/30 05:58:54;;;;;;;;;;;;;;;-144.99;72.98;52301.34;5036661;28;19985;-57
2021/07/30 06:01:21;;;;;;;;;;;;;;;-144.99;72.10;52301.34;5045814;28;19986;-58
2021/07/30 06:03:48;;;;;;;;;;;;;;;-144.99;72.22;52301.34;5039686;28;19961;-58
2021/07/30 06:06:14;;;;;;;;;;;;;;;-144.99;72.39;52301.34;5031277;28;20044;-58
2021/07/30 06:08:40;;;;;;;;;;;;;;;-144.99;72.67;52293.19;5031478;28;19993;-58
2021/07/30 06:11:07;;;;;;;;;;;;;;;-144.99;72.11;52254.47;5031602;28;19970;-61
2021/07/30 06:13:33;;;;;;;;;;;;;;;-144.99;72.00;52266.69;5031848;28;19987;-59
2021/07/30 06:16:01;;;;;;;;;;;;;;;-144.99;71.76;52293.19;5039862;28;19958;-59
2021/07/30 06:18:27;;;;;;;;;;;;;;;-144.99;71.64;52268.72;5033701;28;19995;-59
2021/07/30 06:20:54;;;;;;;;;;;;;;;-144.99;72.20;52317.66;5030554;28;19973;-59
2021/07/30 06:23:20;;;;;;;;;;;;;;;-144.99;71.84;52264.66;5031601;28;20154;-60
2021/07/30 06:25:46;;;;;;;;;;;;;;;-144.99;71.25;52240.19;5031424;28;19954;-59
2021/07/30 06:28:13;;;;;;;;;;;;;;;-144.99;71.37;52293.19;5030919;28;19953;-60
2021/07/30 06:30:39;;;;;;;;;;;;;;;-144.99;70.84;52264.66;5031038;28;19974;-59
2021/07/30 06:33:10;;;;;;;;;;;;;;;-144.99;71.17;52272.81;5031318;28;20454;-60
2021/07/30 06:35:37;;;;;;;;;;;;;;;-144.99;70.83;52244.28;5031810;28;19990;-60
2021/07/30 06:38:03;;;;;;;;;;;;;;;-144.99;70.19;52272.81;5033607;28;20431;-60
2021/07/30 06:40:29;;;;;;;;;;;;;;;-144.99;70.33;52236.13;5035208;28;19963;-60
2021/07/30 06:42:57;;;;;;;;;;;;;;;-144.99;70.05;52248.34;5031326;28;19963;-62
2021/07/30 06:45:24;;;;;;;;;;;;;;;-144.99;69.98;52272.81;5031396;28;20263;-62
2021/07/30 06:47:50;;;;;;;;;;;;;;;-144.99;70.18;52276.88;5031502;28;19954;-61
2021/07/30 06:50:18;;;;;;;;;;;;;;;-144.99;70.55;52260.56;5030869;28;20471;-63
2021/07/30 06:52:44;;;;;;;;;;;;;;;-144.99;70.03;52278.91;5030533;28;20469;-63
2021/07/30 06:55:11;;;;;;;;;;;;;;;-144.99;69.85;52278.91;5036947;28;20328;-61
2021/07/30 06:57:38;;;;;;;;;;;;;;;-144.99;69.65;52246.31;5036608;28;20038;-59
2021/07/30 07:00:05;;;;;;;;;;;;;;;-144.99;69.48;52256.50;5036803;28;20059;-60
2021/07/30 07:02:31;;;;;;;;;;;;;;;-144.99;69.19;52264.66;5042265;28;19962;-61
2021/07/30 07:04:57;;;;;;;;;;;;;;;-144.99;68.87;52252.44;5031531;28;19958;-61
2021/07/30 07:07:25;;;;;;;;;;;;;;;-144.99;68.90;52227.97;5030813;28;19964;-60
2021/07/30 07:09:52;;;;;;;;;;;;;;;-144.99;68.64;52244.28;5030613;28;19955;-60
2021/07/30 07:12:18;;;;;;;;;;;;;;;-144.99;68.95;52248.34;5030787;28;19954;-62
2021/07/30 07:14:44;;;;;;;;;;;;;;;-144.99;68.55;52232.03;5035015;28;19946;-60
2021/07/30 07:17:11;;;;;;;;;;;;;;;-144.99;67.41;52219.81;5036483;28;19951;-60
2021/07/30 07:19:37;;;;;;;;;;;;;;;-144.99;67.53;52213.69;5030270;28;19964;-61
2021/07/30 07:22:04;;;;;;;;;;;;;;;-144.99;66.95;52264.66;5029865;28;19966;-61
2021/07/30 07:24:32;;;;;;;;;;;;;;;-144.99;67.23;52252.44;5030598;28;19961;-61
2021/07/30 07:26:58;;;;;;;;;;;;;;;-144.99;66.41;52191.28;5030924;28;19972;-61
2021/07/30 07:29:24;;;;;;;;;;;;;;;-144.99;66.81;52260.56;5030366;28;19965;-64
2021/07/30 07:31:51;;;;;;;;;;;;;;;-144.99;65.82;52252.44;5030027;28;19969;-66
2021/07/30 07:34:17;;;;;;;;;;;;;;;-144.99;64.70;52199.44;5030309;28;19952;-65
2021/07/30 07:36:43;;;;;;;;;;;;;;;-144.99;64.65;52221.84;5033191;28;19961;-65
2021/07/30 07:39:10;;;;;;;;;;;;;;;-144.99;64.85;52266.69;5045774;28;19960;-65
2021/07/30 07:41:37;;;;;;;;;;;;;;;-144.99;64.91;52211.66;5030683;28;20279;-66
2021/07/30 07:44:04;;;;;;;;;;;;;;;-144.99;64.41;52289.13;5030299;28;19952;-64
2021/07/30 07:46:31;;;;;;;;;;;;;;;-144.99;65.20;52262.63;5029586;28;19953;-66
2021/07/30 07:48:59;;;;;;;;;;;;;;;-144.99;63.83;52254.47;5030617;28;20044;-66
2021/07/30 07:51:25;;;;;;;;;;;;;;;-144.99;63.58;52207.59;5029824;28;20355;-64
2021/07/30 07:53:51;;;;;;;;;;;;;;;-144.99;63.91;52232.03;5028393;28;20050;-66
2021/07/30 07:56:18;;;;;;;;;;;;;;;-144.99;65.35;52252.44;5033244;28;20294;-64
2021/07/30 07:58:45;;;;;;;;;;;;;;;-144.99;64.03;52256.50;5029486;28;19962;-66
2021/07/30 08:01:13;;;;;;;;;;;;;;;-144.99;63.44;52236.13;5029181;28;19973;-65
2021/07/30 08:03:40;;;;;;;;;;;;;;;-144.99;63.32;52244.28;5024786;28;20418;-66
2021/07/30 08:06:06;;;;;;;;;;;;;;;-144.99;62.64;52232.03;5029875;28;19968;-66
2021/07/30 08:08:33;;;;;;;;;;;;;;;-144.99;62.02;52199.44;5028087;28;19957;-65
2021/07/30 08:10:59;;;;;;;;;;;;;;;-144.99;61.75;52227.97;5029203;28;20432;-62
2021/07/30 08:13:25;;;;;;;;;;;;;;;-144.99;62.40;52205.53;5031591;28;20344;-62
2021/07/30 08:15:58;;;;;;;;;;;;;;;-144.99;62.02;52236.13;5039823;28;19969;-62
2021/07/30 08:18:39;;;;;;;;;;;;;;;-144.99;62.42;52215.75;5052417;28;19952;-61
2021/07/30 08:21:05;;;;;;;;;;;;;;;-144.99;61.23;52227.97;5046320;28;19932;-61
2021/07/30 08:23:32;;;;;;;;;;;;;;;-144.99;61.09;52199.44;5050488;28;19943;-61
2021/07/30 08:25:58;;;;;;;;;;;;;;;-144.99;59.94;52215.75;5053133;28;19943;-60
2021/07/30 08:28:26;;;;;;;;;;;;;;;-144.99;60.70;52207.59;5052859;28;19973;-61
2021/07/30 08:30:53;;;;;;;;;;;;;;;-144.99;60.57;52207.59;5052204;28;19967;-61
2021/07/30 08:33:21;;;;;;;;;;;;;;;-144.99;60.22;52199.44;5052813;28;19935;-61
2021/07/30 08:35:47;;;;;;;;;;;;;;;-144.99;61.18;52215.75;5051598;28;19941;-60
2021/07/30 08:38:14;;;;;;;;;;;;;;;-144.99;60.19;52219.81;5052804;28;19941;-59
2021/07/30 08:40:41;;;;;;;;;;;;;;;-144.99;61.16;52181.09;5052277;28;19970;-60
2021/07/30 08:43:12;;;;;;;;;;;;;;;-144.99;58.90;52215.75;5052906;28;20412;-60
2021/07/30 08:45:39;;;;;;;;;;;;;;;-144.99;57.48;52181.09;5043110;28;20310;-60
2021/07/30 08:48:05;;;;;;;;;;;;;;;-144.99;58.29;52187.19;5052342;28;19940;-60
2021/07/30 08:50:33;;;;;;;;;;;;;;;-144.99;58.99;52183.13;5051246;28;19925;-60
2021/07/30 08:53:04;;;;;;;;;;;;;;;-144.99;57.21;52195.34;5052875;28;19949;-60
2021/07/30 08:55:30;;;;;;;;;;;;;;;-144.99;57.26;52177.00;5052209;28;19947;-61
2021/07/30 08:57:57;;;;;;;;;;;;;;;-144.99;55.96;52162.75;5052764;28;20449;-60
2021/07/30 09:00:24;;;;;;;;;;;;;;;-144.99;57.22;52177.00;5051289;28;20223;-60
2021/07/30 09:02:50;;;;;;;;;;;;;;;-144.99;56.09;52199.44;5051316;28;19943;-60
2021/07/30 09:05:29;;;;;;;;;;;;;;;-144.99;56.37;52187.19;5052279;28;19931;-60
2021/07/30 09:07:58;;;;;;;;;;;;;;;-144.99;55.83;52189.25;5052520;28;19963;-60
2021/07/30 09:10:28;;;;;;;;;;;;;;;-144.99;55.21;52211.66;5052403;28;20007;-60
2021/07/30 09:13:09;;;;;;;;;;;;;;;-144.99;55.50;52199.44;5052072;28;19933;-60
2021/07/30 09:15:36;;;;;;;;;;;;;;;-144.99;55.35;52170.91;5051544;28;19960;-60
2021/07/30 09:18:03;;;;;;;;;;;;;;;-144.99;54.31;52191.28;5052227;28;20525;-61
2021/07/30 09:20:30;;;;;;;;;;;;;;;-144.99;53.67;52162.75;5050754;28;19934;-61
2021/07/30 09:22:57;;;;;;;;;;;;;;;-144.99;53.88;52199.44;5052077;28;19925;-61
2021/07/30 09:25:34;;;;;;;;;;;;;;;-144.99;53.65;52179.06;5052276;28;19995;-61
2021/07/30 09:28:04;;;;;;;;;;;;;;;-144.99;53.64;52174.97;5051946;28;19967;-61
2021/07/30 09:30:30;;;;;;;;;;;;;;;-144.99;53.59;52179.06;5051505;28;20004;-60
2021/07/30 09:32:57;;;;;;;;;;;;;;;-144.99;52.71;52179.06;5052516;28;19925;-61
2021/07/30 09:35:23;;;;;;;;;;;;;;;-144.99;52.64;52174.97;5051953;28;20352;-61
2021/07/30 09:38:13;;;;;;;;;;;;;;;-144.99;53.29;52158.66;5051004;28;20054;-61
2021/07/30 09:40:41;;;;;;;;;;;;;;;-144.99;50.98;52148.47;5055930;28;20000;-62
2021/07/30 09:43:20;;;;;;;;;;;;;;;-144.99;51.22;52203.50;5061278;28;20156;-65
2021/07/30 09:45:47;;;;;;;;;;;;;;;-144.99;51.30;52146.44;5054663;28;19935;-60
2021/07/30 09:48:13;;;;;;;;;;;;;;;-144.99;50.87;52156.63;5055909;28;19967;-62
2021/07/30 09:50:39;;;;;;;;;;;;;;;-144.99;50.34;52179.06;5057650;28;20410;-61
2021/07/30 09:53:06;;;;;;;;;;;;;;;-144.99;50.72;52113.84;5054145;28;19925;-62
2021/07/30 09:55:33;;;;;;;;;;;;;;;-144.99;49.72;52146.44;5056423;28;20326;-61
2021/07/30 09:58:02;;;;;;;;;;;;;;;-144.99;49.82;52130.13;5056515;28;20028;-62
2021/07/30 10:00:31;;;;;;;;;;;;;;;-144.99;49.24;52174.97;5055544;28;19959;-61
2021/07/30 10:03:01;;;;;;;;;;;;;;;-144.99;49.48;52146.44;5061324;28;19928;-61
2021/07/30 10:05:28;;;;;;;;;;;;;;;-144.99;47.79;52154.59;5055834;28;19924;-61
2021/07/30 10:07:55;;;;;;;;;;;;;;;-144.99;48.45;52170.91;5055290;28;19948;-60
2021/07/30 10:10:23;;;;;;;;;;;;;;;-144.99;48.30;52136.25;5057702;28;19924;-60
2021/07/30 10:12:54;;;;;;;;;;;;;;;-144.99;48.11;52134.22;5059138;28;19931;-61
2021/07/30 10:15:22;;;;;;;;;;;;;;;-144.99;47.61;52140.31;5053338;28;19929;-61
2021/07/30 10:17:49;;;;;;;;;;;;;;;-144.99;47.32;52170.91;5053176;28;19931;-61
2021/07/30 10:20:16;;;;;;;;;;;;;;;-144.99;47.25;52183.13;5060827;28;19939;-62
2021/07/30 10:22:46;;;;;;;;;;;;;;;-144.99;46.98;52121.97;5056635;28;20378;-61
2021/07/30 10:25:18;;;;;;;;;;;;;;;-144.99;46.93;52113.84;5059446;28;19925;-62
2021/07/30 10:27:45;;;;;;;;;;;;;;;-144.99;46.71;52117.91;5060439;28;20409;-63
2021/07/30 10:30:12;;;;;;;;;;;;;;;-144.99;47.16;52109.75;5057617;28;19924;-61
2021/07/30 10:32:44;;;;;;;;;;;;;;;-144.99;45.81;52170.91;5053663;28;20401;-63
2021/07/30 10:35:11;;;;;;;;;;;;;;;-144.99;45.55;52097.53;5054318;28;20331;-62
2021/07/30 10:37:38;;;;;;;;;;;;;;;-144.99;46.08;52172.94;4348452;28;10000573;-62
2021/07/30 10:40:12;;;;;;;;;;;;;;;-144.99;45.88;52166.81;5046977;28;19929;-63
2021/07/30 10:42:59;;;;;;;;;;;;;;;-144.99;45.97;52117.91;5038559;28;19929;-63
2021/07/30 10:45:25;;;;;;;;;;;;;;;-144.99;46.77;52073.06;5047284;28;19929;-63
2021/07/30 10:48:06;;;;;;;;;;;;;;;-144.99;46.35;52101.59;5047542;28;20394;-63
2021/07/30 10:50:44;;;;;;;;;;;;;;;-144.99;46.57;52101.59;5046499;28;20012;-62
2021/07/30 10:53:29;;;;;;;;;;;;;;;-144.99;44.60;52162.75;5047911;28;19932;-62
2021/07/30 10:55:55;;;;;;;;;;;;;;;-144.99;44.81;52032.31;5047218;28;19946;-62
2021/07/30 10:58:21;;;;;;;;;;;;;;;-144.99;43.84;52048.63;5047134;28;20620;-62
2021/07/30 11:00:51;;;;;;;;;;;;;;;-144.99;43.21;52142.38;5046028;28;19929;-62
2021/07/30 11:03:18;;;;;;;;;;;;;;;-144.99;43.69;52130.13;5046838;28;20162;-63
2021/07/30 11:06:02;;;;;;;;;;;;;;;-144.99;44.42;52172.94;5047425;28;20251;-63
2021/07/30 11:08:30;;;;;;;;;;;;;;;-144.99;44.61;52032.31;5048080;28;19932;-62
2021/07/30 11:11:07;;;;;;;;;;;;;;;-144.99;43.83;52024.16;5046819;28;20382;-62
2021/07/30 11:13:34;;;;;;;;;;;;;;;-144.99;43.27;52028.22;5049609;28;19944;-62
2021/07/30 11:16:06;;;;;;;;;;;;;;;-144.99;44.21;51987.47;5053075;28;19967;-63
2021/07/30 11:18:33;;;;;;;;;;;;;;;-144.99;43.57;52081.22;5052758;28;19935;-61
2021/07/30 11:20:59;;;;;;;;;;;;;;;-144.99;42.80;52052.69;5053650;28;19924;-62
2021/07/30 11:23:27;;;;;;;;;;;;;;;-144.99;42.77;52121.97;5053820;28;19932;-61
2021/07/30 11:26:03;;;;;;;;;;;;;;;-144.99;43.50;52121.97;5053589;28;19924;-62
2021/07/30 11:28:30;;;;;;;;;;;;;;;-144.99;43.37;52077.16;5053855;28;19929;-62
2021/07/30 11:30:56;;;;;;;;;;;;;;;-144.99;43.05;52093.44;5052042;28;19979;-61
2021/07/30 11:33:22;;;;;;;;;;;;;;;-144.99;43.56;52085.31;5058942;28;19924;-62
2021/07/30 11:35:50;;;;;;;;;;;;;;;-144.99;43.07;52162.75;5058654;28;19977;-62
2021/07/30 11:38:16;;;;;;;;;;;;;;;-144.99;44.72;52168.84;5057027;28;19936;-62
2021/07/30 11:40:42;;;;;;;;;;;;;;;-144.99;44.99;52152.56;5053618;28;19929;-61
2021/07/30 11:43:10;;;;;;;;;;;;;;;-144.99;44.41;52111.78;5060498;28;20306;-61
2021/07/30 11:45:37;;;;;;;;;;;;;;;-144.99;44.13;52142.38;5049404;28;19929;-61
2021/07/30 11:48:12;;;;;;;;;;;;;;;-144.99;44.33;52105.69;5054329;28;20072;-62
2021/07/30 11:50:40;;;;;;;;;;;;;;;-144.99;45.32;52081.22;5046396;28;19925;-62
2021/07/30 11:53:08;;;;;;;;;;;;;;;-144.99;44.53;52073.06;5051899;28;19944;-62
2021/07/30 11:55:41;;;;;;;;;;;;;;;-144.99;44.95;52073.06;5049310;28;20416;-62
2021/07/30 11:58:12;;;;;;;;;;;;;;;-144.99;43.03;52134.22;5054358;28;19985;-61
2021/07/30 12:00:38;;;;;;;;;;;;;;;-144.99;43.39;52134.22;5050615;28;20285;-61
2021/07/30 12:03:18;;;;;;;;;;;;;;;-144.99;43.57;52085.31;5051169;28;19939;-61
2021/07/30 12:05:44;;;;;;;;;;;;;;;-144.99;42.78;52105.69;5052245;28;20347;-60
2021/07/30 12:08:11;;;;;;;;;;;;;;;-144.99;43.59;52060.84;5052337;28;19950;-62
2021/07/30 12:10:38;;;;;;;;;;;;;;;-144.99;43.92;52052.69;5046894;28;19936;-62
2021/07/30 12:13:05;;;;;;;;;;;;;;;-144.99;44.19;52126.06;5046104;28;20027;-63
2021/07/30 12:15:33;;;;;;;;;;;;;;;-144.99;43.55;52020.09;5045627;28;19951;-62
2021/07/30 12:18:00;;;;;;;;;;;;;;;-144.99;43.50;52036.38;5046572;28;19929;-62
2021/07/30 12:20:30;;;;;;;;;;;;;;;-144.99;42.61;52036.38;5045278;28;19933;-63
2021/07/30 12:23:02;;;;;;;;;;;;;;;-144.99;42.27;52093.44;5046678;28;19929;-62
2021/07/30 12:25:38;;;;;;;;;;;;;;;-144.99;42.84;52130.13;5046617;28;20063;-62
2021/07/30 12:28:05;;;;;;;;;;;;;;;-144.99;43.22;52152.56;5038295;28;19974;-62
2021/07/30 12:30:33;;;;;;;;;;;;;;;-144.99;43.50;52062.88;5045322;28;19925;-62